sensor_id;sensor_type;location;lat;lon;timestamp;pressure;altitude;pressure_sealevel;temperature;humidity
15405;BME280;7801;48.124;11.590;2023-04-02T00:00:34;94642.84;;;8.99;78.54
15405;BME280;7801;48.124;11.590;2023-04-02T00:03:01;94638.62;;;8.98;78.55
15405;BME280;7801;48.124;11.590;2023-04-02T00:10:58;94638.53;;;9.03;78.23
15405;BME280;7801;48.124;11.590;2023-04-02T00:13:38;94646.53;;;8.75;79.17
15405;BME280;7801;48.124;11.590;2023-04-02T00:16:09;94648.38;;;8.88;79.40
15405;BME280;7801;48.124;11.590;2023-04-02T00:18:40;94640.34;;;8.93;78.95
15405;BME280;7801;48.124;11.590;2023-04-02T00:21:21;94641.88;;;8.94;79.11
15405;BME280;7801;48.124;11.590;2023-04-02T00:23:48;94638.41;;;8.85;79.54
15405;BME280;7801;48.124;11.590;2023-04-02T00:26:36;94649.47;;;8.87;79.29
15405;BME280;7801;48.124;11.590;2023-04-02T00:29:06;94644.78;;;8.84;78.50
15405;BME280;7801;48.124;11.590;2023-04-02T00:31:32;94645.91;;;8.70;79.71
15405;BME280;7801;48.124;11.590;2023-04-02T00:34:00;94650.25;;;8.74;79.40
15405;BME280;7801;48.124;11.590;2023-04-02T00:36:29;94653.53;;;8.71;79.77
15405;BME280;7801;48.124;11.590;2023-04-02T00:38:57;94656.34;;;8.75;79.36
15405;BME280;7801;48.124;11.590;2023-04-02T00:41:25;94655.78;;;8.64;79.69
15405;BME280;7801;48.124;11.590;2023-04-02T00:43:55;94655.78;;;8.64;79.88
15405;BME280;7801;48.124;11.590;2023-04-02T00:46:29;94652.56;;;8.67;79.89
15405;BME280;7801;48.124;11.590;2023-04-02T00:49:09;94657.13;;;8.75;79.30
15405;BME280;7801;48.124;11.590;2023-04-02T00:51:44;94658.59;;;8.81;79.52
15405;BME280;7801;48.124;11.590;2023-04-02T00:54:12;94652.66;;;8.62;79.89
15405;BME280;7801;48.124;11.590;2023-04-02T00:56:46;94663.53;;;8.60;80.04
15405;BME280;7801;48.124;11.590;2023-04-02T00:59:30;94661.66;;;8.61;79.75
15405;BME280;7801;48.124;11.590;2023-04-02T01:01:59;94658.63;;;8.68;79.65
15405;BME280;7801;48.124;11.590;2023-04-02T01:04:32;94654.97;;;8.77;79.49
15405;BME280;7801;48.124;11.590;2023-04-02T01:07:01;94656.47;;;8.70;79.23
15405;BME280;7801;48.124;11.590;2023-04-02T01:09:36;94663.81;;;8.73;79.33
15405;BME280;7801;48.124;11.590;2023-04-02T01:12:19;94664.50;;;8.65;79.42
15405;BME280;7801;48.124;11.590;2023-04-02T01:23:37;94658.81;;;8.71;79.77
15405;BME280;7801;48.124;11.590;2023-04-02T01:29:09;94665.84;;;8.76;79.63
15405;BME280;7801;48.124;11.590;2023-04-02T01:31:37;94669.94;;;8.82;79.26
15405;BME280;7801;48.124;11.590;2023-04-02T01:34:10;94672.81;;;8.72;79.51
15405;BME280;7801;48.124;11.590;2023-04-02T01:42:23;94672.87;;;8.80;79.42
15405;BME280;7801;48.124;11.590;2023-04-02T01:44:52;94683.31;;;8.63;80.12
15405;BME280;7801;48.124;11.590;2023-04-02T01:47:22;94682.00;;;8.74;79.50
15405;BME280;7801;48.124;11.590;2023-04-02T01:49:57;94685.25;;;8.57;80.39
15405;BME280;7801;48.124;11.590;2023-04-02T01:52:54;94690.56;;;8.71;80.14
15405;BME280;7801;48.124;11.590;2023-04-02T01:55:39;94685.25;;;8.71;80.09
15405;BME280;7801;48.124;11.590;2023-04-02T01:58:08;94688.97;;;8.70;79.87
15405;BME280;7801;48.124;11.590;2023-04-02T02:00:40;94697.31;;;8.64;80.29
15405;BME280;7801;48.124;11.590;2023-04-02T02:03:10;94694.28;;;8.70;79.77
15405;BME280;7801;48.124;11.590;2023-04-02T02:05:36;94690.13;;;8.78;79.32
15405;BME280;7801;48.124;11.590;2023-04-02T02:08:01;94697.31;;;8.64;80.14
15405;BME280;7801;48.124;11.590;2023-04-02T02:10:33;94696.53;;;8.63;80.03
15405;BME280;7801;48.124;11.590;2023-04-02T02:12:59;94694.06;;;8.67;80.36
15405;BME280;7801;48.124;11.590;2023-04-02T02:15:25;94704.16;;;8.65;80.30
15405;BME280;7801;48.124;11.590;2023-04-02T02:17:57;94695.84;;;8.71;80.33
15405;BME280;7801;48.124;11.590;2023-04-02T02:20:25;94702.88;;;8.62;80.47
15405;BME280;7801;48.124;11.590;2023-04-02T02:22:52;94707.78;;;8.55;80.52
15405;BME280;7801;48.124;11.590;2023-04-02T02:25:21;94706.22;;;8.68;80.27
15405;BME280;7801;48.124;11.590;2023-04-02T02:30:31;94716.00;;;8.53;80.51
15405;BME280;7801;48.124;11.590;2023-04-02T02:33:09;94717.56;;;8.68;79.93
15405;BME280;7801;48.124;11.590;2023-04-02T02:35:48;94717.56;;;8.68;80.48
15405;BME280;7801;48.124;11.590;2023-04-02T02:38:25;94722.28;;;8.71;79.75
15405;BME280;7801;48.124;11.590;2023-04-02T02:40:57;94720.88;;;8.74;79.53
15405;BME280;7801;48.124;11.590;2023-04-02T02:43:25;94719.63;;;8.71;79.55
15405;BME280;7801;48.124;11.590;2023-04-02T02:45:52;94729.91;;;8.59;80.71
15405;BME280;7801;48.124;11.590;2023-04-02T02:48:23;94724.22;;;8.66;79.78
15405;BME280;7801;48.124;11.590;2023-04-02T02:50:51;94729.72;;;8.42;80.48
15405;BME280;7801;48.124;11.590;2023-04-02T02:53:20;94728.44;;;8.39;80.81
15405;BME280;7801;48.124;11.590;2023-04-02T02:55:48;94727.66;;;8.39;80.61
15405;BME280;7801;48.124;11.590;2023-04-02T02:58:21;94741.66;;;8.53;80.23
15405;BME280;7801;48.124;11.590;2023-04-02T03:00:48;94732.78;;;8.49;80.41
15405;BME280;7801;48.124;11.590;2023-04-02T03:03:19;94733.84;;;8.48;80.62
15405;BME280;7801;48.124;11.590;2023-04-02T03:05:52;94736.50;;;8.48;81.36
15405;BME280;7801;48.124;11.590;2023-04-02T03:08:35;94743.22;;;8.54;80.32
15405;BME280;7801;48.124;11.590;2023-04-02T03:11:48;94747.72;;;8.53;80.58
15405;BME280;7801;48.124;11.590;2023-04-02T03:13:49;94742.56;;;8.48;80.67
15405;BME280;7801;48.124;11.590;2023-04-02T03:21:44;94743.31;;;8.63;80.07
15405;BME280;7801;48.124;11.590;2023-04-02T03:24:32;94746.75;;;8.63;79.97
15405;BME280;7801;48.124;11.590;2023-04-02T03:29:36;94751.28;;;8.49;80.30
15405;BME280;7801;48.124;11.590;2023-04-02T03:34:45;94756.56;;;8.49;80.29
15405;BME280;7801;48.124;11.590;2023-04-02T03:37:21;94758.50;;;8.57;80.07
15405;BME280;7801;48.124;11.590;2023-04-02T03:42:49;94761.25;;;8.52;79.88
15405;BME280;7801;48.124;11.590;2023-04-02T03:45:22;94761.84;;;8.49;80.28
15405;BME280;7801;48.124;11.590;2023-04-02T03:47:59;94762.50;;;8.41;80.52
15405;BME280;7801;48.124;11.590;2023-04-02T03:52:50;94766.63;;;8.47;79.91
15405;BME280;7801;48.124;11.590;2023-04-02T03:55:23;94767.22;;;8.57;79.67
15405;BME280;7801;48.124;11.590;2023-04-02T04:00:47;94775.44;;;8.56;79.54
15405;BME280;7801;48.124;11.590;2023-04-02T04:03:19;94779.28;;;8.50;79.95
15405;BME280;7801;48.124;11.590;2023-04-02T04:05:53;94780.63;;;8.61;79.87
15405;BME280;7801;48.124;11.590;2023-04-02T04:08:23;94778.69;;;8.67;79.61
15405;BME280;7801;48.124;11.590;2023-04-02T04:10:56;94779.47;;;8.67;79.22
15405;BME280;7801;48.124;11.590;2023-04-02T04:13:35;94787.50;;;8.62;79.14
15405;BME280;7801;48.124;11.590;2023-04-02T04:16:08;94791.59;;;8.54;79.01
15405;BME280;7801;48.124;11.590;2023-04-02T04:19:03;94795.72;;;8.47;79.76
15405;BME280;7801;48.124;11.590;2023-04-02T04:21:32;94797.66;;;8.55;79.70
15405;BME280;7801;48.124;11.590;2023-04-02T04:24:06;94798.28;;;8.52;79.83
15405;BME280;7801;48.124;11.590;2023-04-02T04:29:26;94811.94;;;8.54;79.43
15405;BME280;7801;48.124;11.590;2023-04-02T04:31:57;94804.81;;;8.54;79.34
15405;BME280;7801;48.124;11.590;2023-04-02T04:34:41;94810.37;;;8.53;79.40
15405;BME280;7801;48.124;11.590;2023-04-02T04:37:19;94816.84;;;8.47;80.04
15405;BME280;7801;48.124;11.590;2023-04-02T04:42:42;94820.38;;;8.42;80.15
15405;BME280;7801;48.124;11.590;2023-04-02T04:48:09;94828.16;;;8.34;80.58
15405;BME280;7801;48.124;11.590;2023-04-02T04:53:16;94837.81;;;8.24;80.96
15405;BME280;7801;48.124;11.590;2023-04-02T04:55:43;94837.03;;;8.24;81.18
15405;BME280;7801;48.124;11.590;2023-04-02T04:58:21;94839.44;;;8.07;81.78
15405;BME280;7801;48.124;11.590;2023-04-02T05:00:59;94846.13;;;8.32;81.05
15405;BME280;7801;48.124;11.590;2023-04-02T05:03:36;94850.03;;;8.20;81.08
15405;BME280;7801;48.124;11.590;2023-04-02T05:06:23;94846.81;;;8.23;81.43
15405;BME280;7801;48.124;11.590;2023-04-02T05:08:51;94848.47;;;8.19;81.12
15405;BME280;7801;48.124;11.590;2023-04-02T05:11:27;94860.62;;;8.20;81.48
15405;BME280;7801;48.124;11.590;2023-04-02T05:14:07;94854.91;;;8.13;81.74
15405;BME280;7801;48.124;11.590;2023-04-02T05:17:09;94861.59;;;8.24;81.25
15405;BME280;7801;48.124;11.590;2023-04-02T05:19:41;94862.81;;;8.32;80.90
15405;BME280;7801;48.124;11.590;2023-04-02T05:22:16;94864.75;;;8.26;81.33
15405;BME280;7801;48.124;11.590;2023-04-02T05:25:08;94872.97;;;8.25;80.81
15405;BME280;7801;48.124;11.590;2023-04-02T05:30:12;94883.56;;;8.06;82.10
15405;BME280;7801;48.124;11.590;2023-04-02T05:32:45;94879.75;;;8.12;81.86
15405;BME280;7801;48.124;11.590;2023-04-02T05:35:16;94884.59;;;8.24;80.96
15405;BME280;7801;48.124;11.590;2023-04-02T05:37:43;94889.97;;;8.19;81.37
15405;BME280;7801;48.124;11.590;2023-04-02T05:40:14;94889.25;;;8.32;80.91
15405;BME280;7801;48.124;11.590;2023-04-02T05:42:47;94888.81;;;8.44;80.55
15405;BME280;7801;48.124;11.590;2023-04-02T05:45:25;94891.59;;;8.34;80.75
15405;BME280;7801;48.124;11.590;2023-04-02T05:47:55;94897.66;;;8.34;81.17
15405;BME280;7801;48.124;11.590;2023-04-02T05:50:35;94903.16;;;8.38;80.88
15405;BME280;7801;48.124;11.590;2023-04-02T05:56:10;94906.44;;;8.30;80.72
15405;BME280;7801;48.124;11.590;2023-04-02T05:58:40;94910.37;;;8.32;80.85
15405;BME280;7801;48.124;11.590;2023-04-02T06:01:31;94912.31;;;8.26;81.11
15405;BME280;7801;48.124;11.590;2023-04-02T06:06:50;94918.09;;;8.28;81.35
15405;BME280;7801;48.124;11.590;2023-04-02T06:10:02;94923.72;;;8.41;80.37
15405;BME280;7801;48.124;11.590;2023-04-02T06:14:50;94921.03;;;8.27;80.92
15405;BME280;7801;48.124;11.590;2023-04-02T06:17:17;94929.53;;;8.24;80.74
15405;BME280;7801;48.124;11.590;2023-04-02T06:19:44;94928.97;;;8.08;81.43
15405;BME280;7801;48.124;11.590;2023-04-02T06:24:46;94934.38;;;8.17;81.62
15405;BME280;7801;48.124;11.590;2023-04-02T06:27:15;94933.16;;;8.28;81.19
15405;BME280;7801;48.124;11.590;2023-04-02T06:29:44;94934.16;;;8.13;81.47
15405;BME280;7801;48.124;11.590;2023-04-02T06:32:11;94931.94;;;8.20;81.57
15405;BME280;7801;48.124;11.590;2023-04-02T06:34:39;94938.94;;;8.11;82.57
15405;BME280;7801;48.124;11.590;2023-04-02T06:37:34;94938.31;;;8.19;81.53
15405;BME280;7801;48.124;11.590;2023-04-02T06:40:02;94949.44;;;8.35;80.89
15405;BME280;7801;48.124;11.590;2023-04-02T06:42:33;94947.72;;;8.25;81.77
15405;BME280;7801;48.124;11.590;2023-04-02T06:45:00;94948.16;;;8.33;80.96
15405;BME280;7801;48.124;11.590;2023-04-02T06:47:32;94941.22;;;8.18;81.78
15405;BME280;7801;48.124;11.590;2023-04-02T06:50:07;94947.28;;;8.18;81.81
15405;BME280;7801;48.124;11.590;2023-04-02T06:52:49;94954.16;;;8.19;81.74
15405;BME280;7801;48.124;11.590;2023-04-02T06:55:45;94965.84;;;8.13;81.93
15405;BME280;7801;48.124;11.590;2023-04-02T06:58:14;94966.78;;;8.22;81.76
15405;BME280;7801;48.124;11.590;2023-04-02T07:00:46;94973.22;;;8.35;81.72
15405;BME280;7801;48.124;11.590;2023-04-02T07:03:32;94976.22;;;8.28;81.45
15405;BME280;7801;48.124;11.590;2023-04-02T07:05:59;94977.38;;;8.41;81.31
15405;BME280;7801;48.124;11.590;2023-04-02T07:08:26;94980.75;;;8.47;81.08
15405;BME280;7801;48.124;11.590;2023-04-02T07:10:51;94988.78;;;8.55;80.42
15405;BME280;7801;48.124;11.590;2023-04-02T07:13:22;94983.88;;;8.49;80.73
15405;BME280;7801;48.124;11.590;2023-04-02T07:15:50;94986.63;;;8.57;80.60
15405;BME280;7801;48.124;11.590;2023-04-02T07:18:33;94987.56;;;8.67;80.35
15405;BME280;7801;48.124;11.590;2023-04-02T07:20:59;94995.72;;;8.70;80.52
15405;BME280;7801;48.124;11.590;2023-04-02T07:23:24;94998.00;;;8.58;81.04
15405;BME280;7801;48.124;11.590;2023-04-02T07:25:52;94992.63;;;8.63;81.08
15405;BME280;7801;48.124;11.590;2023-04-02T07:28:19;94998.81;;;8.91;79.91
15405;BME280;7801;48.124;11.590;2023-04-02T07:30:44;94999.25;;;8.79;79.63
15405;BME280;7801;48.124;11.590;2023-04-02T07:33:15;95003.59;;;8.89;79.44
15405;BME280;7801;48.124;11.590;2023-04-02T07:35:41;95002.25;;;9.05;79.27
15405;BME280;7801;48.124;11.590;2023-04-02T07:38:07;95000.69;;;9.04;79.33
15405;BME280;7801;48.124;11.590;2023-04-02T07:40:33;95009.91;;;9.07;79.18
15405;BME280;7801;48.124;11.590;2023-04-02T07:42:58;95008.75;;;9.13;79.46
15405;BME280;7801;48.124;11.590;2023-04-02T07:45:25;95013.06;;;9.09;79.09
15405;BME280;7801;48.124;11.590;2023-04-02T07:47:50;95014.13;;;9.08;79.46
15405;BME280;7801;48.124;11.590;2023-04-02T07:50:16;95018.72;;;9.16;79.55
15405;BME280;7801;48.124;11.590;2023-04-02T07:52:42;95030.22;;;9.25;79.77
15405;BME280;7801;48.124;11.590;2023-04-02T07:55:13;95023.66;;;9.22;78.62
15405;BME280;7801;48.124;11.590;2023-04-02T07:57:49;95031.81;;;9.26;78.95
15405;BME280;7801;48.124;11.590;2023-04-02T08:00:16;95029.72;;;9.23;78.87
15405;BME280;7801;48.124;11.590;2023-04-02T08:02:41;95035.22;;;9.13;79.13
15405;BME280;7801;48.124;11.590;2023-04-02T08:05:07;95040.72;;;9.30;78.73
15405;BME280;7801;48.124;11.590;2023-04-02T08:07:33;95036.38;;;9.20;79.25
15405;BME280;7801;48.124;11.590;2023-04-02T08:09:59;95047.19;;;9.24;79.25
15405;BME280;7801;48.124;11.590;2023-04-02T08:12:24;95041.69;;;9.20;78.94
15405;BME280;7801;48.124;11.590;2023-04-02T08:14:50;95048.53;;;9.21;79.41
15405;BME280;7801;48.124;11.590;2023-04-02T08:17:15;95047.13;;;9.43;79.10
15405;BME280;7801;48.124;11.590;2023-04-02T08:19:40;95049.69;;;9.48;78.76
15405;BME280;7801;48.124;11.590;2023-04-02T08:22:06;95049.31;;;9.54;78.25
15405;BME280;7801;48.124;11.590;2023-04-02T08:24:31;95049.97;;;9.46;78.00
15405;BME280;7801;48.124;11.590;2023-04-02T08:26:57;95054.97;;;9.48;78.40
15405;BME280;7801;48.124;11.590;2023-04-02T08:29:22;95055.06;;;9.43;78.68
15405;BME280;7801;48.124;11.590;2023-04-02T08:31:47;95059.00;;;9.45;78.81
15405;BME280;7801;48.124;11.590;2023-04-02T08:34:13;95061.56;;;9.64;77.48
15405;BME280;7801;48.124;11.590;2023-04-02T08:36:40;95059.59;;;9.70;77.49
15405;BME280;7801;48.124;11.590;2023-04-02T08:39:08;95060.09;;;9.72;78.24
15405;BME280;7801;48.124;11.590;2023-04-02T08:41:50;95064.03;;;9.74;78.08
15405;BME280;7801;48.124;11.590;2023-04-02T08:47:33;95068.34;;;9.84;77.50
15405;BME280;7801;48.124;11.590;2023-04-02T08:50:44;95070.09;;;9.88;77.45
15405;BME280;7801;48.124;11.590;2023-04-02T08:53:09;95070.59;;;9.90;76.76
15405;BME280;7801;48.124;11.590;2023-04-02T08:55:55;95074.72;;;9.96;76.81
15405;BME280;7801;48.124;11.590;2023-04-02T08:58:39;95077.19;;;9.93;76.76
15405;BME280;7801;48.124;11.590;2023-04-02T09:01:09;95079.53;;;10.08;76.54
15405;BME280;7801;48.124;11.590;2023-04-02T09:03:42;95081.59;;;9.97;76.46
15405;BME280;7801;48.124;11.590;2023-04-02T09:06:12;95079.91;;;9.88;76.62
15405;BME280;7801;48.124;11.590;2023-04-02T09:08:42;95085.87;;;9.80;77.40
15405;BME280;7801;48.124;11.590;2023-04-02T09:13:49;95089.44;;;10.03;76.76
15405;BME280;7801;48.124;11.590;2023-04-02T09:16:17;95086.09;;;10.11;76.84
15405;BME280;7801;48.124;11.590;2023-04-02T09:18:48;95090.22;;;10.17;76.71
15405;BME280;7801;48.124;11.590;2023-04-02T09:21:46;95101.03;;;10.20;76.41
15405;BME280;7801;48.124;11.590;2023-04-02T09:24:17;95095.72;;;10.20;75.16
15405;BME280;7801;48.124;11.590;2023-04-02T09:26:42;95094.75;;;10.16;76.11
15405;BME280;7801;48.124;11.590;2023-04-02T09:31:38;95108.00;;;10.16;75.09
15405;BME280;7801;48.124;11.590;2023-04-02T09:36:54;95118.00;;;10.19;75.61
15405;BME280;7801;48.124;11.590;2023-04-02T09:39:22;95120.94;;;10.04;76.56
15405;BME280;7801;48.124;11.590;2023-04-02T09:41:50;95125.44;;;10.04;76.32
15405;BME280;7801;48.124;11.590;2023-04-02T09:44:23;95120.75;;;10.14;75.25
15405;BME280;7801;48.124;11.590;2023-04-02T09:46:57;95118.00;;;10.19;75.45
15405;BME280;7801;48.124;11.590;2023-04-02T09:49:33;95127.94;;;10.27;75.00
15405;BME280;7801;48.124;11.590;2023-04-02T09:52:17;95120.88;;;10.23;75.42
15405;BME280;7801;48.124;11.590;2023-04-02T09:54:44;95128.22;;;10.40;74.63
15405;BME280;7801;48.124;11.590;2023-04-02T09:57:21;95116.28;;;10.64;72.46
15405;BME280;7801;48.124;11.590;2023-04-02T10:00:21;95126.69;;;10.75;72.99
15405;BME280;7801;48.124;11.590;2023-04-02T10:03:44;95125.09;;;10.87;71.82
15405;BME280;7801;48.124;11.590;2023-04-02T10:05:45;95133.38;;;10.72;72.49
15405;BME280;7801;48.124;11.590;2023-04-02T10:08:23;95132.06;;;10.83;71.83
15405;BME280;7801;48.124;11.590;2023-04-02T10:10:52;95135.34;;;10.66;72.50
15405;BME280;7801;48.124;11.590;2023-04-02T10:15:56;95138.44;;;10.82;73.57
15405;BME280;7801;48.124;11.590;2023-04-02T10:18:47;95131.75;;;10.85;73.01
15405;BME280;7801;48.124;11.590;2023-04-02T10:21:42;95140.81;;;10.84;72.66
15405;BME280;7801;48.124;11.590;2023-04-02T10:24:11;95143.94;;;10.86;71.06
15405;BME280;7801;48.124;11.590;2023-04-02T10:26:54;95136.03;;;10.72;72.43
15405;BME280;7801;48.124;11.590;2023-04-02T10:29:34;95137.13;;;10.71;72.49
15405;BME280;7801;48.124;11.590;2023-04-02T10:32:07;95139.66;;;10.76;73.20
15405;BME280;7801;48.124;11.590;2023-04-02T10:40:39;95142.56;;;10.88;73.95
15405;BME280;7801;48.124;11.590;2023-04-02T10:49:02;95134.88;;;11.00;72.47
15405;BME280;7801;48.124;11.590;2023-04-02T10:51:52;95138.94;;;11.20;71.79
15405;BME280;7801;48.124;11.590;2023-04-02T10:57:10;95143.59;;;11.37;68.90
15405;BME280;7801;48.124;11.590;2023-04-02T10:59:42;95144.59;;;11.27;68.87
15405;BME280;7801;48.124;11.590;2023-04-02T11:02:33;95145.56;;;11.31;68.86
15405;BME280;7801;48.124;11.590;2023-04-02T11:05:06;95155.19;;;11.41;69.45
15405;BME280;7801;48.124;11.590;2023-04-02T11:07:44;95146.13;;;11.42;67.08
15405;BME280;7801;48.124;11.590;2023-04-02T11:10:14;95152.03;;;11.39;67.67
15405;BME280;7801;48.124;11.590;2023-04-02T11:12:49;95147.06;;;11.46;69.87
15405;BME280;7801;48.124;11.590;2023-04-02T11:15:18;95154.25;;;11.46;68.64
15405;BME280;7801;48.124;11.590;2023-04-02T11:17:44;95158.06;;;11.53;68.00
15405;BME280;7801;48.124;11.590;2023-04-02T11:23:18;95153.97;;;11.47;68.01
15405;BME280;7801;48.124;11.590;2023-04-02T11:25:45;95149.00;;;11.54;66.60
15405;BME280;7801;48.124;11.590;2023-04-02T11:28:30;95155.78;;;11.38;68.24
15405;BME280;7801;48.124;11.590;2023-04-02T11:30:56;95161.22;;;11.33;69.45
15405;BME280;7801;48.124;11.590;2023-04-02T11:35:59;95165.66;;;11.46;68.59
15405;BME280;7801;48.124;11.590;2023-04-02T11:40:55;95176.28;;;11.24;71.29
15405;BME280;7801;48.124;11.590;2023-04-02T11:46:04;95175.94;;;11.17;72.29
15405;BME280;7801;48.124;11.590;2023-04-02T11:48:32;95175.50;;;11.23;72.85
15405;BME280;7801;48.124;11.590;2023-04-02T11:51:11;95175.97;;;11.25;73.35
15405;BME280;7801;48.124;11.590;2023-04-02T11:53:41;95185.28;;;11.14;73.64
15405;BME280;7801;48.124;11.590;2023-04-02T11:56:07;95183.66;;;11.27;72.94
15405;BME280;7801;48.124;11.590;2023-04-02T12:01:34;95188.47;;;11.25;74.07
15405;BME280;7801;48.124;11.590;2023-04-02T12:09:26;95186.44;;;11.44;73.95
15405;BME280;7801;48.124;11.590;2023-04-02T12:11:54;95186.19;;;11.54;73.42
15405;BME280;7801;48.124;11.590;2023-04-02T12:16:57;95182.19;;;11.79;72.47
15405;BME280;7801;48.124;11.590;2023-04-02T12:19:24;95180.12;;;11.76;72.90
15405;BME280;7801;48.124;11.590;2023-04-02T12:21:51;95185.03;;;11.83;72.69
15405;BME280;7801;48.124;11.590;2023-04-02T12:24:20;95194.78;;;11.74;73.25
15405;BME280;7801;48.124;11.590;2023-04-02T12:26:46;95185.91;;;11.78;71.46
15405;BME280;7801;48.124;11.590;2023-04-02T12:29:24;95198.31;;;11.69;72.09
15405;BME280;7801;48.124;11.590;2023-04-02T12:31:51;95194.38;;;11.80;69.30
15405;BME280;7801;48.124;11.590;2023-04-02T12:34:19;95202.25;;;11.71;69.63
15405;BME280;7801;48.124;11.590;2023-04-02T12:36:56;95196.34;;;11.75;68.17
15405;BME280;7801;48.124;11.590;2023-04-02T12:39:24;95204.53;;;11.64;67.41
15405;BME280;7801;48.124;11.590;2023-04-02T12:41:49;95205.47;;;11.60;69.93
15405;BME280;7801;48.124;11.590;2023-04-02T12:44:25;95198.63;;;11.45;71.45
15405;BME280;7801;48.124;11.590;2023-04-02T12:46:51;95197.81;;;11.58;72.72
15405;BME280;7801;48.124;11.590;2023-04-02T12:49:26;95212.97;;;11.58;75.25
15405;BME280;7801;48.124;11.590;2023-04-02T12:51:53;95222.47;;;11.36;78.28
15405;BME280;7801;48.124;11.590;2023-04-02T12:54:20;95229.47;;;10.96;81.03
15405;BME280;7801;48.124;11.590;2023-04-02T12:56:46;95246.38;;;10.73;83.06
15405;BME280;7801;48.124;11.590;2023-04-02T12:59:27;95227.13;;;10.54;84.52
15405;BME280;7801;48.124;11.590;2023-04-02T13:01:58;95237.34;;;10.60;86.56
15405;BME280;7801;48.124;11.590;2023-04-02T13:04:23;95231.63;;;10.67;85.77
15405;BME280;7801;48.124;11.590;2023-04-02T13:06:51;95226.94;;;10.78;86.08
15405;BME280;7801;48.124;11.590;2023-04-02T13:11:52;95249.34;;;10.58;87.97
15405;BME280;7801;48.124;11.590;2023-04-02T13:14:20;95249.72;;;10.51;88.48
15405;BME280;7801;48.124;11.590;2023-04-02T13:16:47;95246.94;;;10.43;90.62
15405;BME280;7801;48.124;11.590;2023-04-02T13:21:40;95231.63;;;10.26;91.39
15405;BME280;7801;48.124;11.590;2023-04-02T13:24:15;95234.56;;;10.24;90.93
15405;BME280;7801;48.124;11.590;2023-04-02T13:26:41;95240.41;;;10.08;92.09
15405;BME280;7801;48.124;11.590;2023-04-02T13:32:06;95241.97;;;10.09;92.14
15405;BME280;7801;48.124;11.590;2023-04-02T13:34:35;95247.41;;;10.17;92.08
15405;BME280;7801;48.124;11.590;2023-04-02T13:37:01;95252.37;;;10.05;91.72
15405;BME280;7801;48.124;11.590;2023-04-02T13:39:26;95246.47;;;9.94;91.58
15405;BME280;7801;48.124;11.590;2023-04-02T13:42:00;95242.53;;;9.92;92.09
15405;BME280;7801;48.124;11.590;2023-04-02T13:44:28;95253.91;;;9.92;92.96
15405;BME280;7801;48.124;11.590;2023-04-02T13:46:54;95252.94;;;10.02;92.72
15405;BME280;7801;48.124;11.590;2023-04-02T13:49:21;95251.09;;;10.03;93.21
15405;BME280;7801;48.124;11.590;2023-04-02T13:51:55;95241.66;;;9.96;93.52
15405;BME280;7801;48.124;11.590;2023-04-02T13:54:28;95249.19;;;9.89;92.65
15405;BME280;7801;48.124;11.590;2023-04-02T13:56:55;95243.59;;;9.91;92.08
15405;BME280;7801;48.124;11.590;2023-04-02T13:59:22;95251.56;;;9.91;92.36
15405;BME280;7801;48.124;11.590;2023-04-02T14:01:48;95249.00;;;9.99;92.04
15405;BME280;7801;48.124;11.590;2023-04-02T14:04:25;95251.19;;;9.97;92.54
15405;BME280;7801;48.124;11.590;2023-04-02T14:16:00;95266.31;;;9.97;91.58
15405;BME280;7801;48.124;11.590;2023-04-02T14:24:25;95287.81;;;9.58;94.75
15405;BME280;7801;48.124;11.590;2023-04-02T14:29:57;95292.41;;;9.52;94.90
15405;BME280;7801;48.124;11.590;2023-04-02T14:35:23;95284.47;;;9.52;93.77
15405;BME280;7801;48.124;11.590;2023-04-02T14:38:08;95291.47;;;9.43;94.29
15405;BME280;7801;48.124;11.590;2023-04-02T14:40:44;95302.56;;;9.45;95.63
15405;BME280;7801;48.124;11.590;2023-04-02T14:43:25;95304.22;;;9.60;94.54
15405;BME280;7801;48.124;11.590;2023-04-02T14:46:04;95304.72;;;9.43;92.18
15405;BME280;7801;48.124;11.590;2023-04-02T14:48:39;95305.66;;;9.34;93.34
15405;BME280;7801;48.124;11.590;2023-04-02T14:54:15;95308.66;;;9.27;94.11
15405;BME280;7801;48.124;11.590;2023-04-02T14:56:46;95309.88;;;9.35;92.89
15405;BME280;7801;48.124;11.590;2023-04-02T15:01:49;95316.59;;;9.27;95.04
15405;BME280;7801;48.124;11.590;2023-04-02T15:04:19;95314.56;;;9.19;93.90
15405;BME280;7801;48.124;11.590;2023-04-02T15:06:49;95316.94;;;9.20;94.35
15405;BME280;7801;48.124;11.590;2023-04-02T15:09:27;95313.53;;;9.15;95.10
15405;BME280;7801;48.124;11.590;2023-04-02T15:11:59;95325.72;;;9.16;95.17
15405;BME280;7801;48.124;11.590;2023-04-02T15:14:40;95318.41;;;9.08;95.54
15405;BME280;7801;48.124;11.590;2023-04-02T15:17:09;95327.09;;;9.13;95.51
15405;BME280;7801;48.124;11.590;2023-04-02T15:19:35;95325.03;;;9.29;95.57
15405;BME280;7801;48.124;11.590;2023-04-02T15:30:24;95338.47;;;9.14;95.78
15405;BME280;7801;48.124;11.590;2023-04-02T15:32:50;95334.72;;;9.15;95.84
15405;BME280;7801;48.124;11.590;2023-04-02T15:35:34;95343.94;;;9.17;95.64
15405;BME280;7801;48.124;11.590;2023-04-02T15:38:23;95342.19;;;9.13;95.66
15405;BME280;7801;48.124;11.590;2023-04-02T15:43:28;95345.75;;;9.22;96.44
15405;BME280;7801;48.124;11.590;2023-04-02T16:01:58;95364.25;;;9.03;95.60
15405;BME280;7801;48.124;11.590;2023-04-02T16:04:41;95369.72;;;9.12;95.36
15405;BME280;7801;48.124;11.590;2023-04-02T16:07:48;95369.25;;;9.05;96.06
15405;BME280;7801;48.124;11.590;2023-04-02T16:10:25;95371.78;;;9.15;95.31
15405;BME280;7801;48.124;11.590;2023-04-02T16:12:54;95379.09;;;9.23;94.97
15405;BME280;7801;48.124;11.590;2023-04-02T16:15:29;95382.25;;;9.25;95.02
15405;BME280;7801;48.124;11.590;2023-04-02T16:18:03;95390.69;;;9.27;95.64
15405;BME280;7801;48.124;11.590;2023-04-02T16:20:35;95393.81;;;9.10;95.53
15405;BME280;7801;48.124;11.590;2023-04-02T16:23:16;95394.47;;;8.97;96.70
15405;BME280;7801;48.124;11.590;2023-04-02T16:34:59;95422.31;;;8.60;98.73
15405;BME280;7801;48.124;11.590;2023-04-02T16:37:45;95431.75;;;8.38;98.81
15405;BME280;7801;48.124;11.590;2023-04-02T16:40:30;95424.72;;;8.23;99.30
15405;BME280;7801;48.124;11.590;2023-04-02T16:43:09;95438.47;;;8.20;98.88
15405;BME280;7801;48.124;11.590;2023-04-02T16:48:49;95451.72;;;8.15;99.57